sensor_id;sensor_type;location;lat;lon;timestamp;pressure;altitude;pressure_sealevel;temperature;humidity
71795;BME280;59641;45.188;5.712;2023-06-01T00:00:31;99358.03;;;21.67;53.56
71795;BME280;59641;45.188;5.712;2023-06-01T00:02:57;99348.50;;;21.64;54.01
71795;BME280;59641;45.188;5.712;2023-06-01T00:05:22;99349.63;;;21.63;53.81
71795;BME280;59641;45.188;5.712;2023-06-01T00:07:47;99346.66;;;21.60;53.95
71795;BME280;59641;45.188;5.712;2023-06-01T00:10:13;99352.69;;;21.57;53.86
71795;BME280;59641;45.188;5.712;2023-06-01T00:12:38;99354.91;;;21.55;54.25
71795;BME280;59641;45.188;5.712;2023-06-01T00:15:04;99351.97;;;21.51;53.93
71795;BME280;59641;45.188;5.712;2023-06-01T00:17:30;99356.91;;;21.49;54.24
71795;BME280;59641;45.188;5.712;2023-06-01T00:19:56;99367.28;;;21.47;54.04
71795;BME280;59641;45.188;5.712;2023-06-01T00:22:22;99363.50;;;21.43;54.40
71795;BME280;59641;45.188;5.712;2023-06-01T00:24:49;99364.91;;;21.40;54.17
71795;BME280;59641;45.188;5.712;2023-06-01T00:27:15;99363.56;;;21.38;54.23
71795;BME280;59641;45.188;5.712;2023-06-01T00:29:41;99363.03;;;21.36;54.19
71795;BME280;59641;45.188;5.712;2023-06-01T00:32:07;99361.41;;;21.35;54.38
71795;BME280;59641;45.188;5.712;2023-06-01T00:34:33;99364.41;;;21.33;54.46
71795;BME280;59641;45.188;5.712;2023-06-01T00:36:58;99353.22;;;21.35;54.61
71795;BME280;59641;45.188;5.712;2023-06-01T00:39:23;99357.06;;;21.34;54.58
71795;BME280;59641;45.188;5.712;2023-06-01T00:41:49;99356.22;;;21.33;54.30
71795;BME280;59641;45.188;5.712;2023-06-01T00:44:14;99348.63;;;21.30;54.52
71795;BME280;59641;45.188;5.712;2023-06-01T00:46:40;99346.19;;;21.28;54.62
71795;BME280;59641;45.188;5.712;2023-06-01T00:49:06;99346.19;;;21.28;54.45
71795;BME280;59641;45.188;5.712;2023-06-01T00:51:32;99350.31;;;21.26;54.65
71795;BME280;59641;45.188;5.712;2023-06-01T00:53:59;99345.44;;;21.23;54.23
71795;BME280;59641;45.188;5.712;2023-06-01T00:56:25;99344.38;;;21.19;54.22
71795;BME280;59641;45.188;5.712;2023-06-01T00:58:51;99347.19;;;21.14;54.20
71795;BME280;59641;45.188;5.712;2023-06-01T01:01:18;99349.97;;;21.09;54.20
71795;BME280;59641;45.188;5.712;2023-06-01T01:03:49;99341.03;;;21.03;54.35
71795;BME280;59641;45.188;5.712;2023-06-01T01:06:57;99349.81;;;21.00;54.26
71795;BME280;59641;45.188;5.712;2023-06-01T01:12:53;99354.47;;;20.94;54.57
71795;BME280;59641;45.188;5.712;2023-06-01T01:15:48;99360.25;;;20.93;54.50
71795;BME280;59641;45.188;5.712;2023-06-01T01:18:24;99356.69;;;20.92;54.45
71795;BME280;59641;45.188;5.712;2023-06-01T01:20:57;99355.94;;;20.87;54.60
71795;BME280;59641;45.188;5.712;2023-06-01T01:23:43;99361.38;;;20.87;54.17
71795;BME280;59641;45.188;5.712;2023-06-01T01:29:06;99359.00;;;20.80;54.76
71795;BME280;59641;45.188;5.712;2023-06-01T01:31:34;99364.44;;;20.80;54.81
71795;BME280;59641;45.188;5.712;2023-06-01T01:34:02;99361.72;;;20.80;54.58
71795;BME280;59641;45.188;5.712;2023-06-01T01:36:28;99365.25;;;20.80;54.79
71795;BME280;59641;45.188;5.712;2023-06-01T01:38:54;99353.25;;;20.81;54.69
71795;BME280;59641;45.188;5.712;2023-06-01T01:41:20;99352.44;;;20.81;54.57
71795;BME280;59641;45.188;5.712;2023-06-01T01:43:47;99356.25;;;20.80;54.32
71795;BME280;59641;45.188;5.712;2023-06-01T01:46:25;99359.78;;;20.80;54.65
71795;BME280;59641;45.188;5.712;2023-06-01T01:48:58;99359.00;;;20.80;54.64
71795;BME280;59641;45.188;5.712;2023-06-01T01:51:40;99360.63;;;20.81;54.52
71795;BME280;59641;45.188;5.712;2023-06-01T01:54:09;99352.44;;;20.81;54.55
71795;BME280;59641;45.188;5.712;2023-06-01T01:56:36;99355.97;;;20.81;54.57
71795;BME280;59641;45.188;5.712;2023-06-01T01:59:04;99356.25;;;20.80;54.36
71795;BME280;59641;45.188;5.712;2023-06-01T02:01:30;99356.25;;;20.80;54.54
71795;BME280;59641;45.188;5.712;2023-06-01T02:04:03;99350.81;;;20.80;54.60
71795;BME280;59641;45.188;5.712;2023-06-01T02:06:29;99357.06;;;20.80;54.52
71795;BME280;59641;45.188;5.712;2023-06-01T02:08:54;99350.00;;;20.79;54.43
71795;BME280;59641;45.188;5.712;2023-06-01T02:11:20;99346.47;;;20.79;54.57
71795;BME280;59641;45.188;5.712;2023-06-01T02:13:46;99347.56;;;20.78;54.29
71795;BME280;59641;45.188;5.712;2023-06-01T02:16:11;99347.56;;;20.78;54.52
71795;BME280;59641;45.188;5.712;2023-06-01T02:18:36;99346.22;;;20.75;54.19
71795;BME280;59641;45.188;5.712;2023-06-01T02:21:07;99347.06;;;20.76;54.69
71795;BME280;59641;45.188;5.712;2023-06-01T02:23:33;99334.50;;;20.75;54.62
71795;BME280;59641;45.188;5.712;2023-06-01T02:25:59;99338.34;;;20.74;54.84
71795;BME280;59641;45.188;5.712;2023-06-01T02:28:24;99337.22;;;20.75;54.52
71795;BME280;59641;45.188;5.712;2023-06-01T02:30:49;99335.31;;;20.75;54.61
71795;BME280;59641;45.188;5.712;2023-06-01T02:33:15;99336.69;;;20.73;54.36
71795;BME280;59641;45.188;5.712;2023-06-01T02:35:41;99331.25;;;20.73;54.68
71795;BME280;59641;45.188;5.712;2023-06-01T02:38:07;99338.34;;;20.74;54.61
71795;BME280;59641;45.188;5.712;2023-06-01T02:40:32;99339.41;;;20.73;54.56
71795;BME280;59641;45.188;5.712;2023-06-01T02:42:57;99337.22;;;20.75;54.95
71795;BME280;59641;45.188;5.712;2023-06-01T02:45:23;99335.63;;;20.74;54.72
71795;BME280;59641;45.188;5.712;2023-06-01T02:47:48;99330.97;;;20.74;54.68
71795;BME280;59641;45.188;5.712;2023-06-01T02:50:14;99334.78;;;20.73;54.72
71795;BME280;59641;45.188;5.712;2023-06-01T02:52:39;99330.97;;;20.74;55.04
71795;BME280;59641;45.188;5.712;2023-06-01T02:55:05;99332.59;;;20.75;55.17
71795;BME280;59641;45.188;5.712;2023-06-01T02:57:31;99332.59;;;20.75;54.95
71795;BME280;59641;45.188;5.712;2023-06-01T02:59:56;99335.31;;;20.75;55.24
71795;BME280;59641;45.188;5.712;2023-06-01T03:02:22;99328.78;;;20.76;54.99
71795;BME280;59641;45.188;5.712;2023-06-01T03:04:47;99322.50;;;20.76;54.85
71795;BME280;59641;45.188;5.712;2023-06-01T03:07:14;99321.69;;;20.75;54.84
71795;BME280;59641;45.188;5.712;2023-06-01T03:09:39;99318.13;;;20.75;54.88
71795;BME280;59641;45.188;5.712;2023-06-01T03:12:05;99322.78;;;20.74;54.54
71795;BME280;59641;45.188;5.712;2023-06-01T03:14:31;99324.19;;;20.72;54.92
71795;BME280;59641;45.188;5.712;2023-06-01T03:16:56;99322.84;;;20.69;54.67
71795;BME280;59641;45.188;5.712;2023-06-01T03:19:22;99328.28;;;20.69;54.73
71795;BME280;59641;45.188;5.712;2023-06-01T03:21:47;99327.50;;;20.69;54.74
71795;BME280;59641;45.188;5.712;2023-06-01T03:24:13;99329.16;;;20.64;54.71
71795;BME280;59641;45.188;5.712;2023-06-01T03:26:38;99332.16;;;20.63;54.56
71795;BME280;59641;45.188;5.712;2023-06-01T03:29:04;99336.56;;;20.59;54.47
71795;BME280;59641;45.188;5.712;2023-06-01T03:31:29;99342.03;;;20.59;54.51
71795;BME280;59641;45.188;5.712;2023-06-01T03:33:55;99342.31;;;20.57;54.66
71795;BME280;59641;45.188;5.712;2023-06-01T03:36:21;99344.50;;;20.55;54.58
71795;BME280;59641;45.188;5.712;2023-06-01T03:38:47;99344.75;;;20.54;54.92
71795;BME280;59641;45.188;5.712;2023-06-01T03:41:12;99336.88;;;20.52;54.96
71795;BME280;59641;45.188;5.712;2023-06-01T03:43:38;99340.41;;;20.53;54.75
71795;BME280;59641;45.188;5.712;2023-06-01T03:46:03;99340.69;;;20.51;54.66
71795;BME280;59641;45.188;5.712;2023-06-01T03:48:29;99344.78;;;20.49;54.94
71795;BME280;59641;45.188;5.712;2023-06-01T03:50:54;99353.28;;;20.47;55.14
71795;BME280;59641;45.188;5.712;2023-06-01T03:53:20;99353.28;;;20.47;55.00
71795;BME280;59641;45.188;5.712;2023-06-01T03:55:47;99346.97;;;20.47;55.29
71795;BME280;59641;45.188;5.712;2023-06-01T03:58:13;99350.53;;;20.47;55.23
71795;BME280;59641;45.188;5.712;2023-06-01T04:00:38;99351.34;;;20.48;54.88
71795;BME280;59641;45.188;5.712;2023-06-01T04:03:04;99350.81;;;20.46;54.95
71795;BME280;59641;45.188;5.712;2023-06-01T04:05:32;99356.28;;;20.46;55.09
71795;BME280;59641;45.188;5.712;2023-06-01T04:07:58;99365.25;;;20.46;54.76
71795;BME280;59641;45.188;5.712;2023-06-01T04:10:23;99362.84;;;20.45;55.30
71795;BME280;59641;45.188;5.712;2023-06-01T04:12:49;99364.72;;;20.44;55.09
71795;BME280;59641;45.188;5.712;2023-06-01T04:15:16;99366.94;;;20.42;55.51
71795;BME280;59641;45.188;5.712;2023-06-01T04:17:43;99370.22;;;20.39;55.79
71795;BME280;59641;45.188;5.712;2023-06-01T04:20:10;99372.13;;;20.38;55.70
71795;BME280;59641;45.188;5.712;2023-06-01T04:22:38;99369.69;;;20.37;55.64
71795;BME280;59641;45.188;5.712;2023-06-01T04:25:08;99370.78;;;20.36;55.89
71795;BME280;59641;45.188;5.712;2023-06-01T04:27:35;99362.63;;;20.36;55.78
71795;BME280;59641;45.188;5.712;2023-06-01T04:30:05;99364.53;;;20.35;55.90
71795;BME280;59641;45.188;5.712;2023-06-01T04:32:34;99364.81;;;20.34;55.43
71795;BME280;59641;45.188;5.712;2023-06-01T04:35:01;99367.00;;;20.32;56.25
71795;BME280;59641;45.188;5.712;2023-06-01T04:37:31;99374.38;;;20.31;55.86
71795;BME280;59641;45.188;5.712;2023-06-01T04:39:59;99369.19;;;20.30;56.06
71795;BME280;59641;45.188;5.712;2023-06-01T04:42:24;99366.78;;;20.28;56.10
71795;BME280;59641;45.188;5.712;2023-06-01T04:44:50;99369.50;;;20.28;56.11
71795;BME280;59641;45.188;5.712;2023-06-01T04:47:16;99369.19;;;20.30;56.16
71795;BME280;59641;45.188;5.712;2023-06-01T04:49:43;99374.38;;;20.31;55.81
71795;BME280;59641;45.188;5.712;2023-06-01T04:52:09;99369.72;;;20.32;56.15
71795;BME280;59641;45.188;5.712;2023-06-01T04:54:36;99370.84;;;20.31;56.33
71795;BME280;59641;45.188;5.712;2023-06-01T04:57:01;99375.97;;;20.32;55.97
71795;BME280;59641;45.188;5.712;2023-06-01T04:59:27;99373.03;;;20.29;56.02
71795;BME280;59641;45.188;5.712;2023-06-01T05:01:52;99372.75;;;20.25;55.90
71795;BME280;59641;45.188;5.712;2023-06-01T05:04:18;99373.88;;;20.24;55.87
71795;BME280;59641;45.188;5.712;2023-06-01T05:06:43;99371.41;;;20.22;56.13
71795;BME280;59641;45.188;5.712;2023-06-01T05:09:08;99367.34;;;20.20;56.00
71795;BME280;59641;45.188;5.712;2023-06-01T05:11:34;99372.00;;;20.19;56.24
71795;BME280;59641;45.188;5.712;2023-06-01T05:13:59;99365.75;;;20.19;56.30
71795;BME280;59641;45.188;5.712;2023-06-01T05:16:27;99362.75;;;20.20;56.36
71795;BME280;59641;45.188;5.712;2023-06-01T05:18:55;99370.34;;;20.24;56.56
71795;BME280;59641;45.188;5.712;2023-06-01T05:21:20;99364.59;;;20.25;56.52
71795;BME280;59641;45.188;5.712;2023-06-01T05:23:46;99372.75;;;20.30;56.69
71795;BME280;59641;45.188;5.712;2023-06-01T05:26:12;99371.38;;;20.33;56.09
71795;BME280;59641;45.188;5.712;2023-06-01T05:28:37;99375.97;;;20.37;56.34
71795;BME280;59641;45.188;5.712;2023-06-01T05:31:03;99369.41;;;20.38;56.16
71795;BME280;59641;45.188;5.712;2023-06-01T05:33:31;99371.56;;;20.41;56.25
71795;BME280;59641;45.188;5.712;2023-06-01T05:35:56;99376.47;;;20.45;56.45
71795;BME280;59641;45.188;5.712;2023-06-01T05:38:22;99368.50;;;20.48;56.23
71795;BME280;59641;45.188;5.712;2023-06-01T05:40:47;99364.41;;;20.51;56.12
71795;BME280;59641;45.188;5.712;2023-06-01T05:43:14;99369.84;;;20.56;56.64
71795;BME280;59641;45.188;5.712;2023-06-01T05:45:40;99370.91;;;20.60;56.38
71795;BME280;59641;45.188;5.712;2023-06-01T05:48:05;99363.47;;;20.66;56.14
71795;BME280;59641;45.188;5.712;2023-06-01T05:50:31;99366.47;;;20.69;56.06
71795;BME280;59641;45.188;5.712;2023-06-01T05:52:56;99358.28;;;20.69;55.39
71795;BME280;59641;45.188;5.712;2023-06-01T05:55:21;99359.09;;;20.70;55.73
71795;BME280;59641;45.188;5.712;2023-06-01T05:57:47;99361.00;;;20.69;55.60
71795;BME280;59641;45.188;5.712;2023-06-01T06:00:13;99354.75;;;20.69;55.47
71795;BME280;59641;45.188;5.712;2023-06-01T06:02:39;99351.19;;;20.68;55.38
71795;BME280;59641;45.188;5.712;2023-06-01T06:05:05;99347.38;;;20.69;55.44
71795;BME280;59641;45.188;5.712;2023-06-01T06:07:31;99350.09;;;20.69;55.59
71795;BME280;59641;45.188;5.712;2023-06-01T06:09:56;99352.84;;;20.69;55.32
71795;BME280;59641;45.188;5.712;2023-06-01T06:12:22;99343.84;;;20.69;55.48
71795;BME280;59641;45.188;5.712;2023-06-01T06:14:47;99346.56;;;20.69;55.26
71795;BME280;59641;45.188;5.712;2023-06-01T06:17:14;99348.19;;;20.70;55.33
71795;BME280;59641;45.188;5.712;2023-06-01T06:19:39;99340.28;;;20.68;55.47
71795;BME280;59641;45.188;5.712;2023-06-01T06:22:05;99340.00;;;20.70;54.99
71795;BME280;59641;45.188;5.712;2023-06-01T06:24:30;99336.16;;;20.71;55.33
71795;BME280;59641;45.188;5.712;2023-06-01T06:26:56;99335.38;;;20.70;55.29
71795;BME280;59641;45.188;5.712;2023-06-01T06:29:21;99333.75;;;20.69;55.47
71795;BME280;59641;45.188;5.712;2023-06-01T06:31:46;99338.09;;;20.70;55.30
71795;BME280;59641;45.188;5.712;2023-06-01T06:34:12;99333.16;;;20.72;55.42
71795;BME280;59641;45.188;5.712;2023-06-01T06:36:38;99321.97;;;20.74;55.38
71795;BME280;59641;45.188;5.712;2023-06-01T06:39:03;99324.41;;;20.75;55.22
71795;BME280;59641;45.188;5.712;2023-06-01T06:41:29;99333.41;;;20.76;55.26
71795;BME280;59641;45.188;5.712;2023-06-01T06:43:54;99332.84;;;20.79;55.20
71795;BME280;59641;45.188;5.712;2023-06-01T06:46:20;99325.19;;;20.81;55.31
71795;BME280;59641;45.188;5.712;2023-06-01T06:48:45;99330.06;;;20.84;55.36
71795;BME280;59641;45.188;5.712;2023-06-01T06:51:10;99325.13;;;20.86;54.92
71795;BME280;59641;45.188;5.712;2023-06-01T06:53:36;99319.88;;;20.90;54.93
71795;BME280;59641;45.188;5.712;2023-06-01T06:56:01;99313.34;;;20.91;55.12
71795;BME280;59641;45.188;5.712;2023-06-01T06:58:27;99320.66;;;20.95;54.56
71795;BME280;59641;45.188;5.712;2023-06-01T07:00:52;99320.66;;;20.95;54.43
71795;BME280;59641;45.188;5.712;2023-06-01T07:03:18;99313.81;;;20.98;54.77
71795;BME280;59641;45.188;5.712;2023-06-01T07:05:44;99316.25;;;20.99;54.38
71795;BME280;59641;45.188;5.712;2023-06-01T07:08:10;99315.97;;;21.01;54.57
71795;BME280;59641;45.188;5.712;2023-06-01T07:10:36;99323.81;;;21.08;54.57
71795;BME280;59641;45.188;5.712;2023-06-01T07:13:01;99320.75;;;21.09;54.52
71795;BME280;59641;45.188;5.712;2023-06-01T07:15:27;99319.09;;;21.13;54.39
71795;BME280;59641;45.188;5.712;2023-06-01T07:17:52;99319.63;;;21.15;54.18
71795;BME280;59641;45.188;5.712;2023-06-01T07:20:18;99323.69;;;21.18;54.08
71795;BME280;59641;45.188;5.712;2023-06-01T07:22:43;99327.75;;;21.20;54.14
71795;BME280;59641;45.188;5.712;2023-06-01T07:25:09;99326.88;;;21.25;53.98
71795;BME280;59641;45.188;5.712;2023-06-01T07:27:35;99328.19;;;21.27;54.01
71795;BME280;59641;45.188;5.712;2023-06-01T07:30:03;99327.31;;;21.32;54.27
71795;BME280;59641;45.188;5.712;2023-06-01T07:32:29;99330.06;;;21.32;54.04
71795;BME280;59641;45.188;5.712;2023-06-01T07:34:54;99325.94;;;21.35;53.99
71795;BME280;59641;45.188;5.712;2023-06-01T07:37:23;99327.84;;;21.34;54.09
71795;BME280;59641;45.188;5.712;2023-06-01T07:39:49;99326.47;;;21.37;54.29
71795;BME280;59641;45.188;5.712;2023-06-01T07:42:14;99322.88;;;21.41;54.17
71795;BME280;59641;45.188;5.712;2023-06-01T07:44:40;99318.75;;;21.44;54.25
71795;BME280;59641;45.188;5.712;2023-06-01T07:47:06;99318.69;;;21.49;54.22
71795;BME280;59641;45.188;5.712;2023-06-01T07:49:32;99322.47;;;21.53;54.01
71795;BME280;59641;45.188;5.712;2023-06-01T07:52:00;99318.00;;;21.57;54.07
71795;BME280;59641;45.188;5.712;2023-06-01T07:54:26;99308.94;;;21.62;53.88
71795;BME280;59641;45.188;5.712;2023-06-01T07:56:51;99313.84;;;21.65;53.71
71795;BME280;59641;45.188;5.712;2023-06-01T07:59:17;99314.34;;;21.67;53.43
71795;BME280;59641;45.188;5.712;2023-06-01T08:01:42;99305.56;;;21.70;53.36
71795;BME280;59641;45.188;5.712;2023-06-01T08:04:08;99310.44;;;21.73;53.15
71795;BME280;59641;45.188;5.712;2023-06-01T08:06:33;99296.19;;;21.76;52.99
71795;BME280;59641;45.188;5.712;2023-06-01T08:09:03;99300.47;;;21.82;53.19
71795;BME280;59641;45.188;5.712;2023-06-01T08:11:28;99294.94;;;21.87;52.85
71795;BME280;59641;45.188;5.712;2023-06-01T08:13:54;99296.78;;;21.92;53.01
71795;BME280;59641;45.188;5.712;2023-06-01T08:16:19;99292.34;;;21.96;52.66
71795;BME280;59641;45.188;5.712;2023-06-01T08:18:45;99293.69;;;21.99;52.38
71795;BME280;59641;45.188;5.712;2023-06-01T08:21:11;99295.28;;;22.00;52.58
71795;BME280;59641;45.188;5.712;2023-06-01T08:23:37;99282.44;;;22.00;52.32
71795;BME280;59641;45.188;5.712;2023-06-01T08:26:02;99288.13;;;22.04;52.47
71795;BME280;59641;45.188;5.712;2023-06-01T08:28:28;99291.59;;;22.09;52.23
71795;BME280;59641;45.188;5.712;2023-06-01T08:30:53;99293.78;;;22.07;52.00
71795;BME280;59641;45.188;5.712;2023-06-01T08:33:18;99284.72;;;22.12;52.21
71795;BME280;59641;45.188;5.712;2023-06-01T08:35:44;99285.75;;;22.16;52.09
71795;BME280;59641;45.188;5.712;2023-06-01T08:38:09;99287.34;;;22.17;52.06
71795;BME280;59641;45.188;5.712;2023-06-01T08:40:35;99278.63;;;22.20;52.06
71795;BME280;59641;45.188;5.712;2023-06-01T08:43:21;99279.53;;;22.29;51.91
71795;BME280;59641;45.188;5.712;2023-06-01T08:45:47;99282.78;;;22.31;51.89
71795;BME280;59641;45.188;5.712;2023-06-01T08:48:18;99276.41;;;22.36;51.37
71795;BME280;59641;45.188;5.712;2023-06-01T08:50:48;99274.19;;;22.38;51.13
71795;BME280;59641;45.188;5.712;2023-06-01T08:53:18;99277.97;;;22.42;51.43
71795;BME280;59641;45.188;5.712;2023-06-01T08:55:44;99281.22;;;22.44;51.16
71795;BME280;59641;45.188;5.712;2023-06-01T08:58:12;99277.06;;;22.47;50.94
71795;BME280;59641;45.188;5.712;2023-06-01T09:00:38;99275.03;;;22.52;51.19
71795;BME280;59641;45.188;5.712;2023-06-01T09:03:03;99272.81;;;22.54;50.99
71795;BME280;59641;45.188;5.712;2023-06-01T09:05:29;99273.53;;;22.60;50.63
71795;BME280;59641;45.188;5.712;2023-06-01T09:07:55;99270.69;;;22.65;50.71
71795;BME280;59641;45.188;5.712;2023-06-01T09:10:24;99270.28;;;22.72;50.80
71795;BME280;59641;45.188;5.712;2023-06-01T09:12:52;99261.00;;;22.73;50.25
71795;BME280;59641;45.188;5.712;2023-06-01T09:15:19;99262.78;;;22.77;50.13
71795;BME280;59641;45.188;5.712;2023-06-01T09:17:46;99263.53;;;22.83;50.33
71795;BME280;59641;45.188;5.712;2023-06-01T09:20:13;99246.00;;;22.84;49.62
71795;BME280;59641;45.188;5.712;2023-06-01T09:22:45;99249.44;;;22.90;50.14
71795;BME280;59641;45.188;5.712;2023-06-01T09:25:12;99235.44;;;22.91;49.84
71795;BME280;59641;45.188;5.712;2023-06-01T09:27:45;99238.91;;;22.97;49.69
71795;BME280;59641;45.188;5.712;2023-06-01T09:30:12;99241.56;;;23.02;49.87
71795;BME280;59641;45.188;5.712;2023-06-01T09:32:38;99226.97;;;23.07;49.55
71795;BME280;59641;45.188;5.712;2023-06-01T09:35:04;99226.03;;;23.11;48.94
71795;BME280;59641;45.188;5.712;2023-06-01T09:37:32;99215.81;;;23.17;49.20
71795;BME280;59641;45.188;5.712;2023-06-01T09:39:57;99212.94;;;23.22;48.86
71795;BME280;59641;45.188;5.712;2023-06-01T09:42:34;99220.41;;;23.30;49.15
71795;BME280;59641;45.188;5.712;2023-06-01T09:45:35;99210.19;;;23.36;48.50
71795;BME280;59641;45.188;5.712;2023-06-01T09:48:28;99213.59;;;23.42;47.93
71795;BME280;59641;45.188;5.712;2023-06-01T09:50:54;99205.91;;;23.44;47.83
71795;BME280;59641;45.188;5.712;2023-06-01T09:53:20;99211.75;;;23.51;47.71
71795;BME280;59641;45.188;5.712;2023-06-01T09:56:03;99208.78;;;23.61;47.99
71795;BME280;59641;45.188;5.712;2023-06-01T09:58:28;99208.97;;;23.65;47.31
71795;BME280;59641;45.188;5.712;2023-06-01T10:00:54;99204.19;;;23.70;47.51
71795;BME280;59641;45.188;5.712;2023-06-01T10:03:21;99207.63;;;23.76;47.20
71795;BME280;59641;45.188;5.712;2023-06-01T10:05:47;99197.38;;;23.81;47.94
71795;BME280;59641;45.188;5.712;2023-06-01T10:08:16;99200.78;;;23.87;47.44
71795;BME280;59641;45.188;5.712;2023-06-01T10:10:46;99193.56;;;23.91;47.01
71795;BME280;59641;45.188;5.712;2023-06-01T10:13:13;99199.72;;;23.97;46.63
71795;BME280;59641;45.188;5.712;2023-06-01T10:15:38;99192.16;;;24.02;46.15
71795;BME280;59641;45.188;5.712;2023-06-01T10:18:05;99192.06;;;24.08;46.44
71795;BME280;59641;45.188;5.712;2023-06-01T10:20:35;99180.13;;;24.12;46.21
71795;BME280;59641;45.188;5.712;2023-06-01T10:23:02;99181.63;;;24.18;46.85
71795;BME280;59641;45.188;5.712;2023-06-01T10:25:40;99177.31;;;24.26;46.14
71795;BME280;59641;45.188;5.712;2023-06-01T10:28:10;99182.34;;;24.33;46.55
71795;BME280;59641;45.188;5.712;2023-06-01T10:30:36;99177.53;;;24.38;45.79
71795;BME280;59641;45.188;5.712;2023-06-01T10:33:02;99168.03;;;24.44;45.83
71795;BME280;59641;45.188;5.712;2023-06-01T10:40:32;99162.63;;;24.62;46.26
71795;BME280;59641;45.188;5.712;2023-06-01T10:42:58;99164.13;;;24.68;46.06
71795;BME280;59641;45.188;5.712;2023-06-01T10:45:38;99149.91;;;24.75;45.94
71795;BME280;59641;45.188;5.712;2023-06-01T10:48:08;99151.41;;;24.81;46.43
71795;BME280;59641;45.188;5.712;2023-06-01T10:50:36;99142.06;;;24.91;46.31
71795;BME280;59641;45.188;5.712;2023-06-01T10:56:18;99147.88;;;25.15;45.97
71795;BME280;59641;45.188;5.712;2023-06-01T10:58:46;99148.72;;;25.24;45.81
71795;BME280;59641;45.188;5.712;2023-06-01T11:01:18;99142.09;;;25.34;45.45
71795;BME280;59641;45.188;5.712;2023-06-01T11:03:48;99150.97;;;25.40;45.49
71795;BME280;59641;45.188;5.712;2023-06-01T11:06:39;99139.19;;;25.48;45.12
71795;BME280;59641;45.188;5.712;2023-06-01T11:09:06;99137.56;;;25.47;44.21
71795;BME280;59641;45.188;5.712;2023-06-01T11:14:13;99139.53;;;25.55;44.89
71795;BME280;59641;45.188;5.712;2023-06-01T11:16:39;99135.00;;;25.59;44.89
71795;BME280;59641;45.188;5.712;2023-06-01T11:19:06;99136.28;;;25.62;44.82
71795;BME280;59641;45.188;5.712;2023-06-01T11:21:39;99127.06;;;25.66;44.97
71795;BME280;59641;45.188;5.712;2023-06-01T11:24:08;99121.09;;;25.64;44.63
71795;BME280;59641;45.188;5.712;2023-06-01T11:26:41;99123.81;;;25.73;45.32
71795;BME280;59641;45.188;5.712;2023-06-01T11:29:12;99121.03;;;25.82;45.49
71795;BME280;59641;45.188;5.712;2023-06-01T11:31:43;99122.47;;;25.97;45.57
71795;BME280;59641;45.188;5.712;2023-06-01T11:34:10;99118.88;;;26.05;45.20
71795;BME280;59641;45.188;5.712;2023-06-01T11:36:41;99111.09;;;26.16;45.02
71795;BME280;59641;45.188;5.712;2023-06-01T11:39:17;99115.91;;;26.27;45.56
71795;BME280;59641;45.188;5.712;2023-06-01T11:41:43;99113.44;;;26.34;45.22
71795;BME280;59641;45.188;5.712;2023-06-01T11:44:09;99106.59;;;26.41;45.03
71795;BME280;59641;45.188;5.712;2023-06-01T11:46:35;99114.69;;;26.46;44.50
71795;BME280;59641;45.188;5.712;2023-06-01T11:49:04;99105.28;;;26.47;44.67
71795;BME280;59641;45.188;5.712;2023-06-01T11:51:32;99103.34;;;26.47;44.26
71795;BME280;59641;45.188;5.712;2023-06-01T11:54:00;99108.16;;;26.50;44.54
71795;BME280;59641;45.188;5.712;2023-06-01T11:56:30;99100.28;;;26.49;43.74
71795;BME280;59641;45.188;5.712;2023-06-01T11:59:00;99098.63;;;26.48;44.22
71795;BME280;59641;45.188;5.712;2023-06-01T12:01:27;99102.88;;;26.45;43.78
71795;BME280;59641;45.188;5.712;2023-06-01T12:03:53;99099.63;;;26.43;43.27
71795;BME280;59641;45.188;5.712;2023-06-01T12:06:20;99091.38;;;26.43;43.75
71795;BME280;59641;45.188;5.712;2023-06-01T12:08:48;99090.59;;;26.43;43.70
71795;BME280;59641;45.188;5.712;2023-06-01T12:11:17;99087.81;;;26.43;43.91
71795;BME280;59641;45.188;5.712;2023-06-01T12:13:45;99083.28;;;26.47;43.77
71795;BME280;59641;45.188;5.712;2023-06-01T12:16:12;99083.75;;;26.49;43.57
71795;BME280;59641;45.188;5.712;2023-06-01T12:18:38;99083.72;;;26.58;44.26
71795;BME280;59641;45.188;5.712;2023-06-01T12:21:10;99085.16;;;26.64;43.60
71795;BME280;59641;45.188;5.712;2023-06-01T12:23:36;99084.47;;;26.67;43.40
71795;BME280;59641;45.188;5.712;2023-06-01T12:26:02;99077.19;;;26.71;43.15
71795;BME280;59641;45.188;5.712;2023-06-01T12:28:27;99072.94;;;26.73;43.21
71795;BME280;59641;45.188;5.712;2023-06-01T12:31:14;99066.44;;;26.78;42.87
71795;BME280;59641;45.188;5.712;2023-06-01T12:33:41;99070.16;;;26.82;42.70
71795;BME280;59641;45.188;5.712;2023-06-01T12:36:09;99063.81;;;26.82;42.29
71795;BME280;59641;45.188;5.712;2023-06-01T12:38:52;99061.22;;;26.85;41.86
71795;BME280;59641;45.188;5.712;2023-06-01T12:41:18;99056.50;;;26.86;42.03
71795;BME280;59641;45.188;5.712;2023-06-01T12:43:48;99047.91;;;26.87;41.65
71795;BME280;59641;45.188;5.712;2023-06-01T12:46:29;99049.66;;;26.92;42.01
71795;BME280;59641;45.188;5.712;2023-06-01T12:49:17;99053.00;;;26.97;42.35
71795;BME280;59641;45.188;5.712;2023-06-01T12:51:43;99038.56;;;27.01;42.06
71795;BME280;59641;45.188;5.712;2023-06-01T12:54:08;99042.25;;;27.05;42.68
71795;BME280;59641;45.188;5.712;2023-06-01T12:56:34;99035.06;;;27.12;42.29
71795;BME280;59641;45.188;5.712;2023-06-01T12:58:59;99035.34;;;27.19;41.97
71795;BME280;59641;45.188;5.712;2023-06-01T13:01:25;99033.66;;;27.27;41.47
71795;BME280;59641;45.188;5.712;2023-06-01T13:03:50;99028.75;;;27.33;41.96
71795;BME280;59641;45.188;5.712;2023-06-01T13:06:18;99027.38;;;27.39;41.36
71795;BME280;59641;45.188;5.712;2023-06-01T13:08:43;99031.53;;;27.45;40.94
71795;BME280;59641;45.188;5.712;2023-06-01T13:11:09;99019.50;;;27.50;41.55
71795;BME280;59641;45.188;5.712;2023-06-01T13:13:35;99028.34;;;27.55;41.63
71795;BME280;59641;45.188;5.712;2023-06-01T13:16:00;99021.81;;;27.60;40.88
71795;BME280;59641;45.188;5.712;2023-06-01T13:18:27;99014.94;;;27.66;40.79